Time,TemperatureF,DewpointF,PressureIn,WindDirection,WindDirectionDegrees,WindSpeedMPH,WindSpeedGustMPH,Humidity,HourlyPrecipIn,Conditions,Clouds,dailyrainin,SoftwareType,DateUTC
2013-04-24 00:00:00,38.8,20.8,29.95,North,353,3.0,3.0,48,0.00,,,0.05,VWS V12.07,2013-04-24 05:00:00,
2013-04-24 00:30:00,38.8,20.8,29.95,North,353,3.0,3.0,48,0.00,,,0.05,VWS V12.07,2013-04-24 05:30:00,
2013-04-24 00:45:00,38.8,20.8,29.95,North,353,3.0,3.0,48,0.00,,,0.00,VWS V12.07,2013-04-24 05:45:00,
2013-04-24 01:00:00,38.8,20.8,29.95,North,353,3.0,3.0,48,0.00,,,0.00,VWS V12.07,2013-04-24 06:00:00,
2013-04-24 01:15:00,38.8,20.8,29.94,North,353,3.0,3.0,48,0.00,,,0.00,VWS V12.07,2013-04-24 06:15:00,
2013-04-24 01:30:00,38.8,20.8,29.94,North,353,3.0,3.0,48,0.00,,,0.00,VWS V12.07,2013-04-24 06:30:00,
2013-04-24 01:45:00,38.8,20.8,29.94,North,353,3.0,3.0,48,0.00,,,0.00,VWS V12.07,2013-04-24 06:45:00,
2013-04-24 02:00:00,38.8,20.8,29.94,North,353,3.0,3.0,48,0.00,,,0.00,VWS V12.07,2013-04-24 07:00:00,
2013-04-24 02:15:00,38.8,20.8,29.94,North,353,3.0,3.0,48,0.00,,,0.00,VWS V12.07,2013-04-24 07:15:00,
2013-04-24 02:30:00,38.8,20.8,29.94,North,353,3.0,3.0,48,0.00,,,0.00,VWS V12.07,2013-04-24 07:30:00,
2013-04-24 02:45:00,38.8,20.8,29.94,North,353,3.0,3.0,48,0.00,,,0.00,VWS V12.07,2013-04-24 07:45:00,
2013-04-24 03:00:00,38.8,20.8,29.93,North,353,3.0,3.0,48,0.00,,,0.00,VWS V12.07,2013-04-24 08:00:00,
2013-04-24 03:30:00,38.8,20.8,29.94,North,353,3.0,3.0,48,0.00,,,0.00,VWS V12.07,2013-04-24 08:30:00,
2013-04-24 03:45:00,38.8,20.8,29.95,North,353,3.0,3.0,48,0.00,,,0.00,VWS V12.07,2013-04-24 08:45:00,
2013-04-24 04:00:00,38.8,20.8,29.95,North,353,3.0,3.0,48,0.00,,,0.00,VWS V12.07,2013-04-24 09:00:00,
2013-04-24 04:30:00,38.8,20.8,29.94,North,353,3.0,3.0,48,0.00,,,0.00,VWS V12.07,2013-04-24 09:30:00,
2013-04-24 04:45:00,38.8,20.8,29.94,North,353,3.0,3.0,48,0.00,,,0.00,VWS V12.07,2013-04-24 09:45:00,
2013-04-24 05:00:00,38.8,20.8,29.94,North,353,3.0,3.0,48,0.00,,,0.00,VWS V12.07,2013-04-24 10:00:00,
2013-04-24 05:30:00,38.8,20.8,29.93,North,353,3.0,3.0,48,0.00,,,0.00,VWS V12.07,2013-04-24 10:30:00,
2013-04-24 05:45:00,38.8,20.8,29.94,North,353,3.0,3.0,48,0.00,,,0.00,VWS V12.07,2013-04-24 10:45:00,
2013-04-24 06:00:00,38.8,20.8,29.94,North,353,3.0,3.0,48,0.00,,,0.00,VWS V12.07,2013-04-24 11:00:00,
2013-04-24 06:30:00,38.8,20.8,29.94,North,353,3.0,3.0,48,0.00,,,0.00,VWS V12.07,2013-04-24 11:30:00,
2013-04-24 06:45:00,38.8,20.8,29.94,North,353,3.0,3.0,48,0.00,,,0.00,VWS V12.07,2013-04-24 11:45:00,
2013-04-24 07:00:00,38.8,20.8,29.95,North,353,3.0,3.0,48,0.00,,,0.00,VWS V12.07,2013-04-24 12:00:00,
2013-04-24 07:30:00,38.8,20.8,29.95,North,353,3.0,3.0,48,0.00,,,0.00,VWS V12.07,2013-04-24 12:30:00,
2013-04-24 07:45:00,38.8,20.8,29.95,North,353,3.0,3.0,48,0.00,,,0.00,VWS V12.07,2013-04-24 12:45:00,
2013-04-24 08:00:00,38.8,20.8,29.91,North,353,3.0,3.0,48,0.00,,,0.00,VWS V12.07,2013-04-24 13:00:00,
2013-04-24 08:30:00,38.8,20.8,29.91,North,353,3.0,3.0,48,0.00,,,0.00,VWS V12.07,2013-04-24 13:30:00,
2013-04-24 08:45:00,38.8,20.8,29.91,North,353,3.0,3.0,48,0.00,,,0.00,VWS V12.07,2013-04-24 13:45:00,
2013-04-24 09:00:00,38.8,20.8,29.92,North,353,3.0,3.0,48,0.00,,,0.00,VWS V12.07,2013-04-24 14:00:00,
2013-04-24 09:15:00,38.8,20.8,29.91,North,353,3.0,3.0,48,0.00,,,0.00,VWS V12.07,2013-04-24 14:15:00,
2013-04-24 09:30:00,38.8,20.8,29.91,North,353,3.0,3.0,48,0.00,,,0.00,VWS V12.07,2013-04-24 14:30:00,
2013-04-24 09:45:00,38.8,20.8,29.91,North,353,3.0,3.0,48,0.00,,,0.00,VWS V12.07,2013-04-24 14:45:00,
2013-04-24 10:00:00,38.8,20.8,29.90,North,353,3.0,3.0,48,0.00,,,0.00,VWS V12.07,2013-04-24 15:00:00,
2013-04-24 10:30:00,38.8,21.3,29.94,WSW,238,5.0,13.0,49,0.00,,,0.00,VWS V12.07,2013-04-24 15:30:00,
2013-04-24 10:45:00,39.6,21.0,29.94,SW,218,5.0,12.0,47,0.00,,,0.00,VWS V12.07,2013-04-24 15:45:00,
2013-04-24 11:00:00,40.3,22.7,29.93,WSW,238,4.0,12.0,49,0.00,,,0.00,VWS V12.07,2013-04-24 16:00:00,
2013-04-24 11:30:00,42.3,23.5,29.92,SW,236,10.0,16.0,47,0.00,,,0.00,VWS V12.07,2013-04-24 16:30:00,
2013-04-24 11:45:00,42.3,23.0,29.92,SSW,203,5.0,15.0,46,0.00,,,0.00,VWS V12.07,2013-04-24 16:45:00,
2013-04-24 12:00:00,43.9,24.0,29.91,SW,221,9.0,15.0,45,0.00,,,0.00,VWS V12.07,2013-04-24 17:00:00,
2013-04-24 12:30:00,47.9,24.8,29.87,WSW,251,5.0,6.0,40,0.00,,,0.00,VWS V12.07,2013-04-24 17:30:00,
2013-04-24 12:45:00,46.4,25.1,29.89,SW,217,8.0,18.0,43,0.00,,,0.00,VWS V12.07,2013-04-24 17:45:00,
2013-04-24 13:00:00,48.0,25.4,29.88,SW,226,1.0,18.0,41,0.00,,,0.00,VWS V12.07,2013-04-24 18:00:00,
2013-04-24 13:30:00,48.6,24.8,29.87,SW,216,6.0,21.0,39,0.01,,,0.01,VWS V12.07,2013-04-24 18:30:00,
2013-04-24 13:45:00,48.6,25.4,29.86,West,281,4.0,22.0,40,0.01,,,0.01,VWS V12.07,2013-04-24 18:45:00,
2013-04-24 14:00:00,48.8,26.2,29.86,WSW,257,11.0,25.0,41,0.01,,,0.01,VWS V12.07,2013-04-24 19:00:00,
2013-04-24 14:30:00,50.1,22.1,29.85,WSW,253,5.0,26.0,33,0.01,,,0.01,VWS V12.07,2013-04-24 19:30:00,
2013-04-24 14:45:00,49.4,22.9,29.85,West,260,6.0,19.0,35,0.00,,,0.01,VWS V12.07,2013-04-24 19:45:00,
2013-04-24 15:00:00,49.8,21.9,29.85,WNW,294,21.0,23.0,33,0.00,,,0.01,VWS V12.07,2013-04-24 20:00:00,
2013-04-24 15:15:00,49.4,22.2,29.85,WSW,258,4.0,22.0,34,0.00,,,0.01,VWS V12.07,2013-04-24 20:15:00,
2013-04-24 15:30:00,49.8,20.4,29.85,SW,233,11.0,27.0,31,0.00,,,0.01,VWS V12.07,2013-04-24 20:30:00,
2013-04-24 15:45:00,49.9,20.5,29.85,West,276,9.0,28.0,31,0.00,,,0.01,VWS V12.07,2013-04-24 20:45:00,
2013-04-24 16:00:00,49.5,20.9,29.84,SW,234,17.0,29.0,32,0.00,,,0.01,VWS V12.07,2013-04-24 21:00:00,
2013-04-24 16:15:00,50.2,22.2,29.84,West,259,11.0,24.0,33,0.00,,,0.01,VWS V12.07,2013-04-24 21:15:00,
2013-04-24 16:30:00,50.5,21.8,29.83,WSW,238,14.0,24.0,32,0.00,,,0.01,VWS V12.07,2013-04-24 21:30:00,
2013-04-24 16:45:00,50.7,23.4,29.83,WSW,250,12.0,20.0,34,0.00,,,0.01,VWS V12.07,2013-04-24 21:45:00,
2013-04-24 17:00:00,50.4,23.8,29.82,West,271,10.0,26.0,35,0.00,,,0.01,VWS V12.07,2013-04-24 22:00:00,
2013-04-24 17:30:00,50.1,24.2,29.82,SE,145,3.0,27.0,36,0.00,,,0.01,VWS V12.07,2013-04-24 22:30:00,
2013-04-24 17:45:00,49.4,24.9,29.82,WSW,237,7.0,21.0,38,0.00,,,0.01,VWS V12.07,2013-04-24 22:45:00,
2013-04-24 18:00:00,49.5,25.0,29.81,SW,231,20.0,23.0,38,0.00,,,0.01,VWS V12.07,2013-04-24 23:00:00,
2013-04-24 18:30:00,49.2,24.7,29.81,SSW,203,3.0,22.0,38,0.00,,,0.01,VWS V12.07,2013-04-24 23:30:00,
2013-04-24 18:45:00,49.1,24.6,29.80,West,270,7.0,16.0,38,0.00,,,0.01,VWS V12.07,2013-04-24 23:45:00,
2013-04-24 19:00:00,48.6,24.2,29.79,SW,236,10.0,17.0,38,0.00,,,0.01,VWS V12.07,2013-04-25 00:00:00,
2013-04-24 19:30:00,48.0,24.2,29.79,WSW,248,2.0,18.0,39,0.00,,,0.01,VWS V12.07,2013-04-25 00:30:00,
2013-04-24 19:45:00,48.0,24.9,29.78,WSW,252,3.0,7.0,40,0.00,,,0.01,VWS V12.07,2013-04-25 00:45:00,
2013-04-24 20:00:00,48.0,24.9,29.76,WSW,252,3.0,7.0,40,0.00,,,0.01,VWS V12.07,2013-04-25 01:00:00,
2013-04-24 20:30:00,48.0,24.9,29.77,WSW,252,3.0,3.0,40,0.00,,,0.01,VWS V12.07,2013-04-25 01:30:00,
2013-04-24 20:45:00,48.0,24.9,29.77,WSW,252,3.0,3.0,40,0.00,,,0.01,VWS V12.07,2013-04-25 01:45:00,
2013-04-24 21:00:00,48.0,24.9,29.79,WSW,252,3.0,3.0,40,0.00,,,0.01,VWS V12.07,2013-04-25 02:00:00,
2013-04-24 21:30:00,48.0,24.9,29.85,WSW,252,3.0,3.0,40,0.00,,,0.01,VWS V12.07,2013-04-25 02:30:00,
2013-04-24 21:45:00,48.0,24.9,29.81,WSW,252,3.0,3.0,40,0.00,,,0.01,VWS V12.07,2013-04-25 02:45:00,
2013-04-24 22:00:00,48.0,24.9,29.85,WSW,252,3.0,3.0,40,0.00,,,0.01,VWS V12.07,2013-04-25 03:00:00,
2013-04-24 22:30:00,48.0,24.9,29.85,WSW,252,3.0,3.0,40,0.00,,,0.01,VWS V12.07,2013-04-25 03:30:00,
2013-04-24 22:45:00,48.0,24.9,29.86,WSW,252,3.0,3.0,40,0.00,,,0.01,VWS V12.07,2013-04-25 03:45:00,
2013-04-24 23:00:00,48.0,24.9,29.85,WSW,252,3.0,3.0,40,0.00,,,0.01,VWS V12.07,2013-04-25 04:00:00,
2013-04-24 23:15:00,48.0,24.9,29.86,WSW,252,3.0,3.0,40,0.00,,,0.01,VWS V12.07,2013-04-25 04:15:00,
2013-04-24 23:30:00,48.0,24.9,29.85,WSW,252,3.0,3.0,40,0.00,,,0.01,VWS V12.07,2013-04-25 04:30:00,
2013-04-24 23:45:00,48.0,24.9,29.86,WSW,252,3.0,3.0,40,0.00,,,0.01,VWS V12.07,2013-04-25 04:45:00,